createdAt,value
2022-10-05T00:01:08.679Z,97227.28
2022-10-05T00:03:35.049Z,97221.81
2022-10-05T00:06:01.417Z,97232.03
2022-10-05T00:08:27.787Z,97235.50
2022-10-05T00:10:54.145Z,97232.81
2022-10-05T00:13:20.511Z,97231.47
2022-10-05T00:15:46.922Z,97234.81
2022-10-05T00:18:13.297Z,97235.50
2022-10-05T00:20:39.664Z,97237.03
2022-10-05T00:23:06.022Z,97228.25
2022-10-05T00:25:32.383Z,97232.25
2022-10-05T00:27:58.783Z,97234.72
2022-10-05T00:30:25.173Z,97236.59
2022-10-05T00:32:53.880Z,97236.25
2022-10-05T00:35:23.725Z,97237.59
2022-10-05T00:37:50.096Z,97231.91
2022-10-05T00:40:16.478Z,97234.25
2022-10-05T00:42:42.861Z,97238.81
2022-10-05T00:45:09.262Z,97229.94
2022-10-05T00:47:35.627Z,97228.25
2022-10-05T00:50:01.993Z,97234.34
2022-10-05T00:52:28.366Z,97226.16
2022-10-05T00:54:54.738Z,97228.81
2022-10-05T00:57:21.093Z,97227.47
2022-10-05T00:59:47.463Z,97226.94
2022-10-05T01:02:13.881Z,97231.25
2022-10-05T01:04:40.324Z,97227.91
2022-10-05T01:07:06.706Z,97219.81
2022-10-05T01:09:33.059Z,97226.69
2022-10-05T01:11:59.437Z,97224.47
2022-10-05T01:14:25.806Z,97228.25
2022-10-05T01:16:52.251Z,97227.03
2022-10-05T01:19:18.630Z,97228.25
2022-10-05T01:21:45.004Z,97226.69
2022-10-05T01:24:11.361Z,97215.25
2022-10-05T01:26:37.726Z,97216.38
2022-10-05T01:29:04.092Z,97225.59
2022-10-05T01:31:30.470Z,97224.28
2022-10-05T01:33:56.863Z,97219.91
2022-10-05T01:36:23.227Z,97215.69
2022-10-05T01:38:49.603Z,97225.25
2022-10-05T01:41:16.078Z,97223.25
2022-10-05T01:43:42.441Z,97221.03
2022-10-05T01:46:08.845Z,97232.03
2022-10-05T01:48:35.255Z,97225.47
2022-10-05T01:51:01.630Z,97228.13
2022-10-05T01:53:27.998Z,97230.47
2022-10-05T01:55:54.366Z,97226.34
2022-10-05T01:58:20.745Z,97222.00
2022-10-05T02:00:47.138Z,97221.22
2022-10-05T02:03:13.543Z,97221.22
2022-10-05T02:05:39.896Z,97219.81
2022-10-05T02:08:06.259Z,97212.13
2022-10-05T02:10:32.620Z,97215.91
2022-10-05T02:12:58.975Z,97212.38
2022-10-05T02:15:25.336Z,97208.84
2022-10-05T02:17:51.691Z,97202.28
2022-10-05T02:20:18.060Z,97210.59
2022-10-05T02:22:44.416Z,97209.47
2022-10-05T02:25:10.785Z,97204.94
2022-10-05T02:27:37.149Z,97206.72
2022-10-05T02:30:03.519Z,97204.03
2022-10-05T02:32:29.891Z,97201.16
2022-10-05T02:34:56.277Z,97203.81
2022-10-05T02:37:22.642Z,97199.59
2022-10-05T02:39:49.026Z,97199.16
2022-10-05T02:42:15.380Z,97202.03
2022-10-05T02:44:41.741Z,97197.16
2022-10-05T02:47:08.106Z,97199.38
2022-10-05T02:49:34.476Z,97196.38
2022-10-05T02:52:00.849Z,97197.81
2022-10-05T02:54:27.231Z,97202.69
2022-10-05T02:56:53.589Z,97200.16
2022-10-05T02:59:19.954Z,97198.25
2022-10-05T03:01:46.381Z,97205.47
2022-10-05T03:04:12.758Z,97202.38
2022-10-05T03:06:39.126Z,97201.38
2022-10-05T03:09:05.506Z,97201.38
2022-10-05T03:11:31.887Z,97195.13
2022-10-05T03:13:58.250Z,97200.47
2022-10-05T03:16:24.705Z,97202.47
2022-10-05T03:18:51.106Z,97197.94
2022-10-05T03:21:17.464Z,97201.13
2022-10-05T03:23:43.832Z,97191.38
2022-10-05T03:26:10.210Z,97193.72
2022-10-05T03:28:36.664Z,97196.06
2022-10-05T03:31:03.102Z,97188.28
2022-10-05T03:33:29.511Z,97191.38
2022-10-05T03:35:55.873Z,97189.06
2022-10-05T03:38:22.232Z,97184.94
2022-10-05T03:40:48.605Z,97186.97
2022-10-05T03:43:14.964Z,97186.25
2022-10-05T03:45:41.326Z,97184.69
2022-10-05T03:48:07.683Z,97186.25
2022-10-05T03:50:34.049Z,97187.16
2022-10-05T03:53:00.400Z,97183.06
2022-10-05T03:55:26.761Z,97189.50
2022-10-05T03:57:53.121Z,97183.50
2022-10-05T04:00:19.485Z,97184.94
2022-10-05T04:02:45.885Z,97186.25
2022-10-05T04:05:12.276Z,97191.47
2022-10-05T04:07:38.645Z,97186.59
2022-10-05T04:10:05.010Z,97186.47
2022-10-05T04:12:31.460Z,97183.94
2022-10-05T04:14:57.827Z,97187.72
2022-10-05T04:17:24.189Z,97191.16
2022-10-05T04:19:50.566Z,97187.25
2022-10-05T04:22:16.932Z,97194.38
2022-10-05T04:24:43.303Z,97197.34
2022-10-05T04:27:09.656Z,97198.91
2022-10-05T04:29:36.033Z,97202.34
2022-10-05T04:32:02.389Z,97204.56
2022-10-05T04:34:28.791Z,97203.13
2022-10-05T04:36:55.159Z,97200.66
2022-10-05T04:39:21.519Z,97194.91
2022-10-05T04:41:47.890Z,97200.00
2022-10-05T04:44:14.265Z,97200.31
2022-10-05T04:46:40.656Z,97200.00
2022-10-05T04:49:07.050Z,97200.47
2022-10-05T04:51:33.422Z,97194.69
2022-10-05T04:53:59.771Z,97203.44
2022-10-05T04:56:26.146Z,97200.78
2022-10-05T04:58:52.516Z,97202.22
2022-10-05T05:01:18.940Z,97201.88
2022-10-05T05:03:45.425Z,97203.56
2022-10-05T05:06:17.388Z,97209.00
2022-10-05T05:08:44.492Z,97209.00
2022-10-05T05:11:15.803Z,97203.66
2022-10-05T05:13:43.174Z,97214.97
2022-10-05T05:16:09.591Z,97216.97
2022-10-05T05:18:36.013Z,97212.53
2022-10-05T05:21:02.390Z,97209.31
2022-10-05T05:23:28.752Z,97220.94
2022-10-05T05:25:55.192Z,97227.84
2022-10-05T05:28:21.648Z,97220.63
2022-10-05T05:30:48.129Z,97224.41
2022-10-05T05:33:14.483Z,97221.94
2022-10-05T05:35:40.865Z,97229.56
2022-10-05T05:38:07.238Z,97223.94
2022-10-05T05:40:33.593Z,97222.06
2022-10-05T05:42:59.956Z,97229.56
2022-10-05T05:45:26.305Z,97235.38
2022-10-05T05:47:52.736Z,97232.59
2022-10-05T05:50:19.144Z,97230.72
2022-10-05T05:52:45.526Z,97229.25
2022-10-05T05:55:11.893Z,97231.13
2022-10-05T05:57:38.270Z,97238.34
2022-10-05T06:00:04.628Z,97241.34
2022-10-05T06:02:31.138Z,97229.94
2022-10-05T06:04:57.638Z,97232.63
2022-10-05T06:07:29.456Z,97235.09
2022-10-05T06:09:56.844Z,97243.09
2022-10-05T06:12:23.215Z,97248.00
2022-10-05T06:14:49.576Z,97249.78
2022-10-05T06:17:15.942Z,97254.00
2022-10-05T06:19:42.300Z,97253.88
2022-10-05T06:22:08.656Z,97246.69
2022-10-05T06:24:35.029Z,97247.91
2022-10-05T06:27:01.409Z,97249.56
2022-10-05T06:29:27.794Z,97250.66
2022-10-05T06:31:58.575Z,97249.91
2022-10-05T06:34:25.339Z,97252.44
2022-10-05T06:36:51.735Z,97251.00
2022-10-05T06:39:18.103Z,97253.31
2022-10-05T06:41:44.474Z,97256.00
2022-10-05T06:44:10.824Z,97248.78
2022-10-05T06:46:37.188Z,97251.13
2022-10-05T06:49:03.577Z,97259.13
2022-10-05T06:51:29.942Z,97251.44
2022-10-05T06:53:56.307Z,97255.34
2022-10-05T06:56:22.690Z,97255.09
2022-10-05T06:58:49.062Z,97256.97
2022-10-05T07:01:15.506Z,97257.91
2022-10-05T07:03:41.942Z,97253.69
2022-10-05T07:06:08.314Z,97251.78
2022-10-05T07:08:34.686Z,97253.69
2022-10-05T07:11:01.045Z,97257.22
2022-10-05T07:13:27.412Z,97259.00
2022-10-05T07:15:53.766Z,97259.13
2022-10-05T07:18:20.136Z,97250.66
2022-10-05T07:20:49.205Z,97253.31
2022-10-05T07:23:15.808Z,97256.44
2022-10-05T07:25:42.187Z,97251.78
2022-10-05T07:28:08.632Z,97256.00
2022-10-05T07:30:35.120Z,97255.25
2022-10-05T07:33:01.652Z,97259.13
2022-10-05T07:35:28.025Z,97258.00
2022-10-05T07:37:54.418Z,97255.25
2022-10-05T07:40:20.798Z,97266.00
2022-10-05T07:42:51.768Z,97260.69
2022-10-05T07:45:18.545Z,97267.56
2022-10-05T07:47:44.911Z,97262.88
2022-10-05T07:50:11.282Z,97270.66
2022-10-05T07:52:37.640Z,97271.00
2022-10-05T07:55:04.006Z,97275.97
2022-10-05T07:57:30.369Z,97277.69
2022-10-05T07:59:56.739Z,97277.03
2022-10-05T08:02:23.254Z,97276.91
2022-10-05T08:04:49.674Z,97275.47
2022-10-05T08:07:16.102Z,97279.22
2022-10-05T08:09:42.503Z,97277.69
2022-10-05T08:12:08.870Z,97273.78
2022-10-05T08:14:35.294Z,97277.34
2022-10-05T08:17:01.648Z,97274.69
2022-10-05T08:19:28.005Z,97275.91
2022-10-05T08:21:54.380Z,97277.34
2022-10-05T08:24:20.841Z,97275.91
2022-10-05T08:26:47.205Z,97277.03
2022-10-05T08:29:14.019Z,97276.69
2022-10-05T08:31:40.635Z,97274.81
2022-10-05T08:34:07.016Z,97272.25
2022-10-05T08:36:33.401Z,97279.03
2022-10-05T08:38:59.760Z,97269.91
2022-10-05T08:41:26.130Z,97272.16
2022-10-05T08:43:52.504Z,97278.25
2022-10-05T08:46:18.926Z,97277.47
2022-10-05T08:48:45.386Z,97271.81
2022-10-05T08:51:11.771Z,97275.25
2022-10-05T08:53:38.142Z,97276.59
2022-10-05T08:56:04.516Z,97272.06
2022-10-05T08:58:30.891Z,97271.41
2022-10-05T09:00:57.262Z,97274.66
2022-10-05T09:03:23.627Z,97272.19
2022-10-05T09:05:49.997Z,97268.75
2022-10-05T09:08:16.373Z,97263.84
2022-10-05T09:10:42.740Z,97270.31
2022-10-05T09:13:09.109Z,97261.53
2022-10-05T09:15:35.544Z,97276.75
2022-10-05T09:18:01.942Z,97262.75
2022-10-05T09:20:28.323Z,97260.41
2022-10-05T09:22:54.687Z,97258.97
2022-10-05T09:25:21.359Z,97260.88
2022-10-05T09:27:47.736Z,97269.63
2022-10-05T09:30:14.204Z,97262.88
2022-10-05T09:32:40.575Z,97263.63
2022-10-05T09:35:06.953Z,97260.97
2022-10-05T09:37:33.323Z,97264.41
2022-10-05T09:40:01.526Z,97268.31
2022-10-05T09:42:28.140Z,97263.63
2022-10-05T09:44:54.510Z,97263.00
2022-10-05T09:47:20.911Z,97261.56
2022-10-05T09:49:47.276Z,97264.56
2022-10-05T09:52:18.670Z,97263.44
2022-10-05T09:54:45.417Z,97255.09
2022-10-05T09:57:11.802Z,97255.31
2022-10-05T09:59:38.169Z,97252.66
2022-10-05T10:02:04.606Z,97250.13
2022-10-05T10:04:31.065Z,97258.13
2022-10-05T10:06:57.442Z,97248.91
2022-10-05T10:09:23.815Z,97244.88
2022-10-05T10:11:50.351Z,97252.97
2022-10-05T10:14:16.828Z,97243.88
2022-10-05T10:16:43.196Z,97248.00
2022-10-05T10:19:09.562Z,97242.31
2022-10-05T10:21:35.928Z,97249.09
2022-10-05T10:24:02.309Z,97246.44
2022-10-05T10:26:28.696Z,97237.69
2022-10-05T10:28:55.066Z,97246.44
2022-10-05T10:31:21.493Z,97247.34
2022-10-05T10:33:47.898Z,97243.78
2022-10-05T10:36:14.268Z,97239.66
2022-10-05T10:38:40.628Z,97234.34
2022-10-05T10:41:07.007Z,97237.47
2022-10-05T10:43:33.376Z,97242.00
2022-10-05T10:45:59.797Z,97230.16
2022-10-05T10:48:26.218Z,97227.13
2022-10-05T10:50:52.585Z,97235.13
2022-10-05T10:53:18.948Z,97232.28
2022-10-05T10:55:45.321Z,97227.69
2022-10-05T10:58:15.880Z,97224.69
2022-10-05T11:00:42.756Z,97227.50
2022-10-05T11:03:09.152Z,97231.59
2022-10-05T11:05:35.586Z,97223.69
2022-10-05T11:08:01.974Z,97219.84
2022-10-05T11:10:28.362Z,97223.59
2022-10-05T11:12:54.723Z,97206.19
2022-10-05T11:15:21.094Z,97214.50
2022-10-05T11:17:47.467Z,97210.06
2022-10-05T11:20:13.838Z,97205.50
2022-10-05T11:22:40.226Z,97212.72
2022-10-05T11:25:06.586Z,97209.41
2022-10-05T11:27:32.945Z,97199.84
2022-10-05T11:29:59.330Z,97211.72
2022-10-05T11:32:25.742Z,97207.63
2022-10-05T11:34:52.123Z,97205.53
2022-10-05T11:37:18.490Z,97205.84
2022-10-05T11:39:44.870Z,97196.06
2022-10-05T11:42:11.247Z,97202.31
2022-10-05T11:44:37.627Z,97185.84
2022-10-05T11:47:04.008Z,97188.19
2022-10-05T11:49:30.376Z,97189.44
2022-10-05T11:51:56.769Z,97177.97
2022-10-05T11:54:23.133Z,97185.97
2022-10-05T11:56:52.302Z,97176.09
2022-10-05T11:59:21.017Z,97182.22
2022-10-05T12:01:47.397Z,97174.22
2022-10-05T12:04:13.824Z,97172.34
2022-10-05T12:06:40.244Z,97169.66
2022-10-05T12:09:06.631Z,97170.44
2022-10-05T12:11:33.006Z,97168.66
2022-10-05T12:13:59.374Z,97164.00
2022-10-05T12:16:25.884Z,97151.13
2022-10-05T12:18:52.302Z,97156.13
2022-10-05T12:21:18.696Z,97158.69
2022-10-05T12:23:45.067Z,97160.13
2022-10-05T12:26:11.445Z,97148.56
2022-10-05T12:28:37.811Z,97156.22
2022-10-05T12:31:04.214Z,97146.66
2022-10-05T12:33:30.614Z,97148.22
2022-10-05T12:35:57.028Z,97151.53
2022-10-05T12:38:23.407Z,97138.66
2022-10-05T12:40:49.779Z,97137.88
2022-10-05T12:43:16.165Z,97146.22
2022-10-05T12:45:42.562Z,97133.66
2022-10-05T12:48:08.986Z,97141.47
2022-10-05T12:50:35.366Z,97131.56
2022-10-05T12:53:01.738Z,97135.47
2022-10-05T12:55:28.119Z,97125.16
2022-10-05T12:57:54.495Z,97130.94
2022-10-05T13:00:23.148Z,97130.16
2022-10-05T13:02:49.854Z,97120.34
2022-10-05T13:05:16.219Z,97124.03
2022-10-05T13:07:42.594Z,97118.38
2022-10-05T13:10:08.978Z,97113.81
2022-10-05T13:12:35.351Z,97121.47
2022-10-05T13:15:01.711Z,97116.50
2022-10-05T13:17:28.093Z,97113.13
2022-10-05T13:19:54.477Z,97115.03
2022-10-05T13:22:20.856Z,97115.81
2022-10-05T13:24:47.221Z,97123.81
2022-10-05T13:27:13.591Z,97117.69
2022-10-05T13:29:39.985Z,97110.56
2022-10-05T13:32:06.354Z,97107.16
2022-10-05T13:34:32.724Z,97106.69
2022-10-05T13:36:59.103Z,97109.81
2022-10-05T13:39:25.468Z,97110.94
2022-10-05T13:41:51.844Z,97110.47
2022-10-05T13:44:18.212Z,97107.16
2022-10-05T13:46:44.587Z,97105.22
2022-10-05T13:49:13.698Z,97103.81
2022-10-05T13:51:40.068Z,97109.47
2022-10-05T13:54:06.434Z,97107.16
2022-10-05T13:56:32.800Z,97099.91
2022-10-05T13:58:59.183Z,97104.91
2022-10-05T14:01:25.562Z,97106.13
2022-10-05T14:03:51.952Z,97095.91
2022-10-05T14:06:18.431Z,97095.16
2022-10-05T14:08:44.792Z,97092.47
2022-10-05T14:11:11.433Z,97093.59
2022-10-05T14:13:38.108Z,97088.34
2022-10-05T14:16:04.653Z,97090.56
2022-10-05T14:18:31.178Z,97088.69
2022-10-05T14:20:57.553Z,97085.22
2022-10-05T14:23:23.947Z,97083.78
2022-10-05T14:25:50.493Z,97083.78
2022-10-05T14:28:16.921Z,97085.78
2022-10-05T14:30:46.797Z,97078.47
2022-10-05T14:33:16.066Z,97080.44
2022-10-05T14:35:42.429Z,97082.00
2022-10-05T14:38:08.903Z,97078.91
2022-10-05T14:40:35.268Z,97077.03
2022-10-05T14:43:01.632Z,97085.09
2022-10-05T14:45:28.039Z,97074.00
2022-10-05T14:47:54.466Z,97074.78
2022-10-05T14:50:20.943Z,97072.88
2022-10-05T14:52:51.552Z,97079.31
2022-10-05T14:55:18.250Z,97073.66
2022-10-05T14:57:44.634Z,97079.31
2022-10-05T15:00:11.006Z,97072.44
2022-10-05T15:02:37.456Z,97074.13
2022-10-05T15:05:03.898Z,97081.75
2022-10-05T15:07:30.288Z,97072.22
2022-10-05T15:09:56.719Z,97068.00
2022-10-05T15:12:23.165Z,97073.34
2022-10-05T15:14:49.531Z,97076.41
2022-10-05T15:17:15.892Z,97080.22
2022-10-05T15:19:42.268Z,97068.78
2022-10-05T15:22:08.650Z,97072.22
2022-10-05T15:24:35.837Z,97070.75
2022-10-05T15:27:04.286Z,97075.75
2022-10-05T15:29:30.658Z,97077.66
2022-10-05T15:31:57.047Z,97084.09
2022-10-05T15:34:23.696Z,97081.41
2022-10-05T15:36:50.124Z,97088.31
2022-10-05T15:39:16.493Z,97081.75
2022-10-05T15:41:42.866Z,97089.41
2022-10-05T15:44:09.275Z,97092.53
2022-10-05T15:46:35.713Z,97088.56
2022-10-05T15:49:02.117Z,97092.00
2022-10-05T15:51:28.499Z,97100.00
2022-10-05T15:53:54.893Z,97091.63
2022-10-05T15:56:21.270Z,97099.63
2022-10-05T15:58:47.647Z,97102.31
2022-10-05T16:01:14.083Z,97107.31
2022-10-05T16:03:40.497Z,97106.97
2022-10-05T16:06:06.865Z,97111.53
2022-10-05T16:08:33.249Z,97115.44
2022-10-05T16:10:59.639Z,97111.53
2022-10-05T16:13:26.010Z,97107.75
2022-10-05T16:15:52.379Z,97109.09
2022-10-05T16:18:18.757Z,97111.09
2022-10-05T16:20:45.125Z,97116.41
2022-10-05T16:23:11.584Z,97108.88
2022-10-05T16:25:37.955Z,97113.09
2022-10-05T16:28:05.711Z,97109.56
2022-10-05T16:30:32.449Z,97120.56
2022-10-05T16:32:58.837Z,97119.78
2022-10-05T16:35:25.213Z,97120.56
2022-10-05T16:37:51.607Z,97127.84
2022-10-05T16:40:17.991Z,97131.63
2022-10-05T16:42:44.378Z,97140.31
2022-10-05T16:45:10.791Z,97140.66
2022-10-05T16:47:37.163Z,97138.44
2022-10-05T16:50:03.658Z,97139.53
2022-10-05T16:52:30.064Z,97135.00
2022-10-05T16:54:56.439Z,97139.22
2022-10-05T16:57:22.819Z,97138.44
2022-10-05T16:59:49.200Z,97143.78
2022-10-05T17:02:15.613Z,97151.44
2022-10-05T17:04:42.047Z,97147.53
2022-10-05T17:07:08.426Z,97155.53
2022-10-05T17:09:34.796Z,97156.22
2022-10-05T17:12:01.165Z,97161.88
2022-10-05T17:14:27.533Z,97158.75
2022-10-05T17:16:53.894Z,97160.41
2022-10-05T17:19:20.270Z,97163.44
2022-10-05T17:21:46.627Z,97174.09
2022-10-05T17:24:12.994Z,97181.31
2022-10-05T17:26:39.369Z,97185.09
2022-10-05T17:29:05.733Z,97195.09
2022-10-05T17:31:32.084Z,97199.66
2022-10-05T17:33:58.455Z,97196.22
2022-10-05T17:36:24.810Z,97204.22
2022-10-05T17:38:51.173Z,97204.88
2022-10-05T17:41:17.549Z,97212.22
2022-10-05T17:43:43.904Z,97219.84
2022-10-05T17:46:10.344Z,97216.09
2022-10-05T17:48:36.756Z,97223.31
2022-10-05T17:51:03.126Z,97223.31
2022-10-05T17:53:29.482Z,97223.31
2022-10-05T17:55:55.854Z,97232.09
2022-10-05T17:58:22.447Z,97236.31
2022-10-05T18:00:49.195Z,97239.31
2022-10-05T18:03:15.621Z,97239.75
2022-10-05T18:05:41.998Z,97243.53
2022-10-05T18:08:08.370Z,97245.53
2022-10-05T18:10:37.842Z,97250.41
2022-10-05T18:13:06.822Z,97259.19
2022-10-05T18:15:33.219Z,97270.28
2022-10-05T18:17:59.590Z,97267.97
2022-10-05T18:20:25.966Z,97263.44
2022-10-05T18:22:52.446Z,97270.88
2022-10-05T18:25:18.796Z,97276.75
2022-10-05T18:27:45.172Z,97283.41
2022-10-05T18:30:11.527Z,97275.75
2022-10-05T18:32:37.883Z,97287.19
2022-10-05T18:35:04.248Z,97279.97
2022-10-05T18:37:30.608Z,97285.97
2022-10-05T18:39:57.009Z,97283.28
2022-10-05T18:42:23.373Z,97290.63
2022-10-05T18:44:49.735Z,97292.06
2022-10-05T18:47:16.104Z,97297.41
2022-10-05T18:49:42.471Z,97303.19
2022-10-05T18:52:08.831Z,97313.53
2022-10-05T18:54:35.196Z,97316.19
2022-10-05T18:57:01.563Z,97319.66
2022-10-05T18:59:27.931Z,97329.19
2022-10-05T19:01:54.397Z,97329.63
2022-10-05T19:04:20.857Z,97339.50
2022-10-05T19:06:47.235Z,97340.28
2022-10-05T19:09:13.597Z,97338.50
2022-10-05T19:11:39.966Z,97346.09
2022-10-05T19:14:06.342Z,97338.88
2022-10-05T19:16:32.714Z,97341.84
2022-10-05T19:18:59.082Z,97340.75
2022-10-05T19:21:25.457Z,97340.75
2022-10-05T19:23:51.812Z,97339.97
2022-10-05T19:26:18.268Z,97342.97
2022-10-05T19:28:44.656Z,97349.84
2022-10-05T19:31:11.070Z,97352.53
2022-10-05T19:33:37.489Z,97359.28
2022-10-05T19:36:03.853Z,97367.28
2022-10-05T19:38:30.227Z,97371.84
2022-10-05T19:40:56.593Z,97372.63
2022-10-05T19:43:22.966Z,97374.19
2022-10-05T19:45:49.358Z,97376.53
2022-10-05T19:48:15.726Z,97378.72
2022-10-05T19:50:42.080Z,97379.50
2022-10-05T19:53:08.447Z,97379.06
2022-10-05T19:55:34.823Z,97388.19
2022-10-05T19:58:01.203Z,97390.19
2022-10-05T20:00:27.584Z,97400.06
2022-10-05T20:02:54.016Z,97399.28
2022-10-05T20:05:20.387Z,97390.84
2022-10-05T20:07:46.775Z,97393.84
2022-10-05T20:10:13.175Z,97396.97
2022-10-05T20:12:39.534Z,97410.28
2022-10-05T20:15:05.907Z,97403.41
2022-10-05T20:17:32.296Z,97409.84
2022-10-05T20:19:58.669Z,97415.94
2022-10-05T20:22:25.044Z,97417.84
2022-10-05T20:24:51.403Z,97422.72
2022-10-05T20:27:17.779Z,97421.16
2022-10-05T20:29:44.176Z,97430.59
2022-10-05T20:32:10.533Z,97430.59
2022-10-05T20:34:36.907Z,97425.72
2022-10-05T20:37:03.265Z,97428.53
2022-10-05T20:39:29.637Z,97434.28
2022-10-05T20:41:56.004Z,97440.41
2022-10-05T20:44:22.374Z,97442.13
2022-10-05T20:46:48.803Z,97449.75
2022-10-05T20:49:15.203Z,97453.53
2022-10-05T20:51:41.574Z,97455.78
2022-10-05T20:54:07.953Z,97470.66
2022-10-05T20:56:34.321Z,97463.78
2022-10-05T20:59:00.694Z,97467.53
2022-10-05T21:01:27.103Z,97473.97
2022-10-05T21:03:53.503Z,97463.31
2022-10-05T21:06:19.883Z,97465.53
2022-10-05T21:08:46.240Z,97468.84
2022-10-05T21:11:12.608Z,97467.75
2022-10-05T21:13:38.974Z,97476.84
2022-10-05T21:16:05.371Z,97477.97
2022-10-05T21:18:32.072Z,97482.50
2022-10-05T21:21:02.056Z,97488.19
2022-10-05T21:23:28.776Z,97483.50
2022-10-05T21:25:55.137Z,97498.28
2022-10-05T21:28:21.557Z,97494.50
2022-10-05T21:30:47.975Z,97503.63
2022-10-05T21:33:14.346Z,97490.59
2022-10-05T21:35:40.717Z,97496.38
2022-10-05T21:38:07.081Z,97496.38
2022-10-05T21:40:33.455Z,97500.16
2022-10-05T21:42:59.833Z,97495.63
2022-10-05T21:45:26.229Z,97507.38
2022-10-05T21:47:52.618Z,97502.84
2022-10-05T21:50:18.992Z,97509.69
2022-10-05T21:52:45.351Z,97503.94
2022-10-05T21:55:11.730Z,97511.16
2022-10-05T21:57:38.099Z,97506.59
2022-10-05T22:00:04.470Z,97510.06
2022-10-05T22:02:30.843Z,97511.47
2022-10-05T22:04:57.219Z,97519.16
2022-10-05T22:07:23.580Z,97520.72
2022-10-05T22:09:49.952Z,97519.63
2022-10-05T22:12:16.325Z,97518.06
2022-10-05T22:14:42.693Z,97523.81
2022-10-05T22:17:09.070Z,97531.03
2022-10-05T22:19:35.446Z,97524.16
2022-10-05T22:22:01.826Z,97531.81
2022-10-05T22:24:28.207Z,97530.59
2022-10-05T22:26:54.580Z,97534.16
2022-10-05T22:29:20.946Z,97537.94
2022-10-05T22:31:47.400Z,97546.28
2022-10-05T22:34:13.809Z,97544.72
2022-10-05T22:36:40.175Z,97548.47
2022-10-05T22:39:06.538Z,97546.28
2022-10-05T22:41:32.913Z,97552.06
2022-10-05T22:43:59.277Z,97557.69
2022-10-05T22:46:25.692Z,97555.22
2022-10-05T22:48:52.086Z,97550.84
2022-10-05T22:51:18.461Z,97553.03
2022-10-05T22:53:44.833Z,97553.16
2022-10-05T22:56:11.201Z,97555.69
2022-10-05T22:58:37.564Z,97562.28
2022-10-05T23:01:04.032Z,97565.25
2022-10-05T23:03:30.471Z,97560.72
2022-10-05T23:05:56.845Z,97557.69
2022-10-05T23:08:23.209Z,97567.25
2022-10-05T23:10:49.574Z,97563.97
2022-10-05T23:13:15.956Z,97568.81
2022-10-05T23:15:42.335Z,97568.81
2022-10-05T23:18:08.710Z,97569.94
2022-10-05T23:20:35.080Z,97578.72
2022-10-05T23:23:01.441Z,97576.72
2022-10-05T23:25:27.812Z,97580.59
2022-10-05T23:27:54.298Z,97586.41
2022-10-05T23:30:20.734Z,97586.06
2022-10-05T23:32:47.102Z,97580.75
2022-10-05T23:35:13.456Z,97584.50
2022-10-05T23:37:39.811Z,97576.19
2022-10-05T23:40:06.171Z,97581.06
2022-10-05T23:42:32.542Z,97570.06
2022-10-05T23:44:58.916Z,97577.28
2022-10-05T23:47:25.294Z,97576.81
2022-10-05T23:49:51.675Z,97583.25
2022-10-05T23:52:18.050Z,97579.03
2022-10-05T23:54:44.407Z,97581.84
2022-10-05T23:57:10.773Z,97576.81
2022-10-05T23:59:37.140Z,97582.03
